Time;durP1;ratioP1;P1;durP2;ratioP2;P2;SDS_P1;SDS_P2;PMS_P1;PMS_P2;Temp;Humidity;BMP_temperature;BMP_pressure;BME280_temperature;BME280_humidity;BME280_pressure;Samples;Min_cycle;Max_cycle;Signal;HPM_P1;HPM_P2
2023/07/01 00:01:55;;;;;;;0.88;0.00;;;18.50;99.90;;;;;;5011785;28;20436;-75
2023/07/01 00:04:23;;;;;;;2.08;0.20;;;18.50;99.90;;;;;;5012857;28;20034;-75
2023/07/01 00:06:49;;;;;;;3.35;0.30;;;18.40;99.90;;;;;;5013065;28;20129;-75
2023/07/01 00:09:14;;;;;;;2.85;0.10;;;18.40;99.90;;;;;;5028196;28;20508;-75
2023/07/01 00:11:40;;;;;;;0.95;0.10;;;18.30;99.90;;;;;;5016598;28;20543;-75
2023/07/01 00:14:05;;;;;;;2.60;0.52;;;18.20;99.90;;;;;;5016495;28;20029;-75
2023/07/01 00:16:31;;;;;;;0.82;0.10;;;18.20;99.90;;;;;;5016686;28;20034;-75
2023/07/01 00:18:57;;;;;;;3.47;0.10;;;18.20;99.90;;;;;;5016525;28;20077;-74
2023/07/01 00:21:22;;;;;;;3.03;0.30;;;18.10;99.90;;;;;;5016944;28;20014;-75
2023/07/01 00:23:48;;;;;;;5.85;0.25;;;18.10;99.90;;;;;;5017225;28;20101;-74
2023/07/01 00:26:14;;;;;;;4.10;0.95;;;18.10;99.90;;;;;;5016487;28;20078;-75
2023/07/01 00:28:39;;;;;;;3.70;0.30;;;18.10;99.90;;;;;;5031687;28;20029;-75
2023/07/01 00:31:05;;;;;;;2.78;0.40;;;18.50;99.90;;;;;;5016855;28;20109;-75
2023/07/01 00:33:30;;;;;;;3.38;0.73;;;17.90;99.90;;;;;;5016364;28;20026;-75
2023/07/01 00:35:56;;;;;;;3.88;0.22;;;17.90;99.90;;;;;;5016230;28;20480;-75
2023/07/01 00:38:22;;;;;;;3.13;0.15;;;18.10;99.90;;;;;;5016796;28;20500;-75
2023/07/01 00:40:47;;;;;;;3.33;0.85;;;18.00;99.90;;;;;;5015030;28;20359;-75
2023/07/01 00:43:13;;;;;;;3.95;0.45;;;17.90;99.90;;;;;;5016180;28;20486;-75
2023/07/01 00:45:39;;;;;;;3.42;0.30;;;17.90;99.90;;;;;;5016157;28;20030;-75
2023/07/01 00:48:04;;;;;;;3.95;0.50;;;17.70;99.90;;;;;;5016088;28;20021;-75
2023/07/01 00:50:31;;;;;;;5.30;1.10;;;17.60;99.90;;;;;;5016105;28;20097;-75
2023/07/01 00:52:56;;;;;;;4.75;0.80;;;17.50;99.90;;;;;;5014692;28;20034;-75
2023/07/01 00:55:22;;;;;;;5.43;0.95;;;17.50;99.90;;;;;;5016012;28;20040;-75
2023/07/01 00:57:47;;;;;;;2.45;0.57;;;17.30;99.90;;;;;;5016006;28;20026;-75
2023/07/01 01:00:14;;;;;;;2.97;0.70;;;17.20;99.90;;;;;;5016409;28;20058;-75
2023/07/01 01:02:55;;;;;;;1.65;0.43;;;17.10;99.90;;;;;;5015892;28;20026;-75
2023/07/01 01:05:41;;;;;;;5.88;0.80;;;17.00;99.90;;;;;;5014620;28;20492;-75
2023/07/01 01:08:10;;;;;;;6.55;1.58;;;16.90;99.90;;;;;;5016322;28;20014;-75
2023/07/01 01:10:43;;;;;;;6.40;0.82;;;16.90;99.90;;;;;;5014381;28;20057;-75
2023/07/01 01:13:09;;;;;;;5.75;1.10;;;16.80;99.90;;;;;;5015475;28;20505;-75
2023/07/01 01:15:36;;;;;;;3.53;1.10;;;16.70;99.90;;;;;;5014296;28;20025;-75
2023/07/01 01:18:05;;;;;;;3.25;0.65;;;16.80;99.90;;;;;;5030587;28;20057;-75
2023/07/01 01:20:33;;;;;;;3.10;0.22;;;16.80;99.90;;;;;;5015574;28;20018;-75
2023/07/01 01:23:26;;;;;;;1.65;0.38;;;16.80;99.90;;;;;;5014595;28;20076;-75
2023/07/01 01:26:22;;;;;;;1.52;0.50;;;16.80;99.90;;;;;;5015394;28;20049;-75
2023/07/01 01:28:49;;;;;;;3.88;0.55;;;16.90;99.90;;;;;;5013107;28;20405;-75
2023/07/01 01:31:15;;;;;;;4.00;0.77;;;17.00;99.90;;;;;;5015378;28;20076;-75
2023/07/01 01:33:41;;;;;;;6.75;0.73;;;17.10;99.90;;;;;;5015212;28;20478;-75
2023/07/01 01:36:23;;;;;;;3.53;0.45;;;17.10;99.90;;;;;;5015211;28;20034;-75
2023/07/01 01:38:50;;;;;;;1.90;0.20;;;17.20;99.90;;;;;;5013900;28;20030;-75
2023/07/01 01:41:23;;;;;;;6.18;0.70;;;17.20;99.90;;;;;;5015162;28;20075;-75
2023/07/01 01:43:56;;;;;;;5.43;0.60;;;17.20;99.90;;;;;;5013908;28;20026;-75
2023/07/01 01:46:23;;;;;;;4.30;0.50;;;17.20;99.90;;;;;;5015905;28;20072;-75
2023/07/01 01:48:51;;;;;;;0.40;0.20;;;17.20;99.90;;;;;;5015065;28;20481;-75
2023/07/01 01:51:17;;;;;;;11.35;1.23;;;17.20;99.90;;;;;;5015128;28;20029;-76
2023/07/01 01:53:43;;;;;;;1.20;0.43;;;17.20;99.90;;;;;;5014812;28;20034;-75
2023/07/01 01:56:10;;;;;;;3.63;0.40;;;17.20;99.90;;;;;;5014969;28;20102;-75
2023/07/01 01:58:36;;;;;;;2.08;0.55;;;17.80;99.90;;;;;;5014819;28;20496;-75
2023/07/01 02:01:02;;;;;;;3.05;0.38;;;17.30;99.90;;;;;;5014892;28;20101;-75
2023/07/01 02:03:27;;;;;;;6.10;0.35;;;17.10;99.90;;;;;;5015375;28;20057;-75
2023/07/01 02:05:53;;;;;;;1.90;0.68;;;17.20;99.90;;;;;;5014806;28;20080;-75
2023/07/01 02:08:18;;;;;;;4.10;0.50;;;17.20;99.90;;;;;;5015271;28;20030;-75
2023/07/01 02:10:44;;;;;;;1.30;0.20;;;17.30;99.90;;;;;;5014644;28;20026;-75
2023/07/01 02:13:09;;;;;;;1.60;0.38;;;17.20;99.90;;;;;;5014732;28;20037;-75
2023/07/01 02:15:35;;;;;;;2.65;0.20;;;17.20;99.90;;;;;;5029769;28;20061;-75
2023/07/01 02:18:03;;;;;;;2.15;0.45;;;17.20;99.90;;;;;;5014390;28;20072;-75
2023/07/01 02:20:29;;;;;;;6.55;1.30;;;17.20;99.90;;;;;;5014679;28;20037;-75
2023/07/01 02:22:55;;;;;;;3.60;0.50;;;17.20;99.90;;;;;;5014366;28;20050;-75
2023/07/01 02:25:21;;;;;;;5.43;0.77;;;17.40;99.90;;;;;;5014926;28;20037;-75
2023/07/01 02:27:46;;;;;;;3.28;0.88;;;17.20;99.90;;;;;;5014359;28;20491;-75
2023/07/01 02:30:12;;;;;;;2.85;0.50;;;17.20;99.90;;;;;;5013052;28;20389;-75
2023/07/01 02:32:37;;;;;;;1.70;0.45;;;17.20;99.90;;;;;;5014021;28;20473;-75
2023/07/01 02:35:03;;;;;;;1.85;0.40;;;17.20;99.90;;;;;;5014219;28;20033;-75
2023/07/01 02:37:29;;;;;;;14.48;1.55;;;;;;;;;;5014215;28;20045;-75
2023/07/01 02:39:55;;;;;;;6.35;1.55;;;17.20;99.90;;;;;;5014026;28;20037;-75
2023/07/01 02:42:20;;;;;;;2.50;0.68;;;17.20;99.90;;;;;;5012819;28;20112;-75
2023/07/01 02:44:47;;;;;;;5.35;0.77;;;17.30;99.90;;;;;;5014578;28;20026;-75
2023/07/01 02:47:13;;;;;;;4.22;1.02;;;17.40;99.90;;;;;;5013988;28;20026;-75
2023/07/01 02:49:40;;;;;;;4.07;0.88;;;17.20;99.90;;;;;;5012723;28;20202;-75
2023/07/01 02:52:07;;;;;;;5.35;0.75;;;17.20;99.90;;;;;;5013923;28;20104;-74
2023/07/01 02:54:33;;;;;;;4.57;0.88;;;17.10;99.90;;;;;;5013782;28;20034;-75
2023/07/01 02:56:58;;;;;;;2.42;1.15;;;17.10;99.90;;;;;;5014337;28;20032;-75
2023/07/01 02:59:24;;;;;;;4.72;0.70;;;17.10;99.90;;;;;;5013675;28;20065;-75
2023/07/01 03:01:50;;;;;;;3.53;0.60;;;17.10;99.90;;;;;;5013710;28;20104;-75
2023/07/01 03:04:15;;;;;;;2.47;0.68;;;17.10;99.90;;;;;;5013746;28;20029;-75
2023/07/01 03:06:41;;;;;;;3.60;0.70;;;17.10;99.90;;;;;;5013657;28;20056;-75
2023/07/01 03:09:07;;;;;;;1.83;0.77;;;17.10;99.90;;;;;;5013678;28;20017;-75
2023/07/01 03:11:35;;;;;;;3.38;1.02;;;17.10;99.90;;;;;;5012370;28;20026;-75
2023/07/01 03:14:00;;;;;;;5.97;0.80;;;17.10;99.90;;;;;;5012074;28;20055;-75
2023/07/01 03:16:26;;;;;;;16.30;1.13;;;17.10;99.90;;;;;;5013545;28;20041;-75
2023/07/01 03:18:51;;;;;;;3.78;0.65;;;17.10;99.90;;;;;;5013519;28;20030;-75
2023/07/01 03:21:17;;;;;;;4.28;0.75;;;17.10;99.90;;;;;;5014044;28;20113;-75
2023/07/01 03:23:42;;;;;;;3.95;0.80;;;17.10;99.90;;;;;;5012165;28;20020;-75
2023/07/01 03:26:08;;;;;;;4.63;1.02;;;17.10;99.90;;;;;;5013465;28;20022;-75
2023/07/01 03:28:33;;;;;;;3.95;0.55;;;17.10;99.90;;;;;;5012226;28;20020;-75
2023/07/01 03:30:59;;;;;;;3.80;0.55;;;17.10;99.90;;;;;;5013790;28;20058;-75
2023/07/01 03:33:25;;;;;;;3.05;0.47;;;17.10;99.90;;;;;;5013340;28;20034;-75
2023/07/01 03:35:50;;;;;;;6.78;1.40;;;17.20;99.90;;;;;;5013882;28;20022;-75
2023/07/01 03:38:16;;;;;;;5.03;1.13;;;17.10;99.90;;;;;;5013792;28;20458;-75
2023/07/01 03:40:41;;;;;;;2.08;0.90;;;17.10;99.90;;;;;;5013649;28;20390;-75
2023/07/01 03:43:07;;;;;;;2.80;0.70;;;17.20;99.90;;;;;;5013348;28;20461;-75
2023/07/01 03:45:32;;;;;;;3.53;1.67;;;17.10;99.90;;;;;;5015677;28;20018;-75
2023/07/01 03:47:58;;;;;;;1.90;0.70;;;17.70;99.90;;;;;;5017270;28;20026;-75
2023/07/01 03:50:23;;;;;;;10.25;1.85;;;17.20;99.90;;;;;;5017323;28;20025;-75
2023/07/01 03:52:49;;;;;;;4.65;1.70;;;17.20;99.90;;;;;;5015827;28;20034;-75
2023/07/01 03:55:15;;;;;;;2.17;0.85;;;17.30;99.90;;;;;;5017773;28;20022;-75
2023/07/01 03:57:41;;;;;;;2.40;0.80;;;17.20;99.90;;;;;;5017213;28;20549;-75
2023/07/01 04:00:17;;;;;;;4.13;1.65;;;17.20;99.90;;;;;;5016947;28;20026;-75
2023/07/01 04:02:49;;;;;;;1.95;0.93;;;17.10;99.90;;;;;;5017339;28;20029;-75
2023/07/01 04:05:16;;;;;;;3.58;1.80;;;17.20;99.90;;;;;;5016978;28;20029;-75
2023/07/01 04:07:43;;;;;;;3.13;1.77;;;17.10;99.90;;;;;;5016992;28;20029;-75
2023/07/01 04:10:10;;;;;;;3.53;1.52;;;17.10;99.90;;;;;;5017604;28;20026;-74
2023/07/01 04:12:37;;;;;;;3.47;1.85;;;17.00;99.90;;;;;;5017141;28;20029;-75
2023/07/01 04:15:09;;;;;;;3.00;1.92;;;17.00;99.90;;;;;;5015663;28;20116;-74
2023/07/01 04:17:36;;;;;;;4.63;1.60;;;16.90;99.90;;;;;;5016866;28;20026;-75
2023/07/01 04:20:03;;;;;;;6.00;2.28;;;17.00;99.90;;;;;;5015423;28;20073;-75
2023/07/01 04:22:29;;;;;;;2.47;1.70;;;16.90;99.90;;;;;;5016473;28;20030;-75
2023/07/01 04:24:55;;;;;;;4.03;2.17;;;16.90;99.90;;;;;;5016655;28;20030;-75
2023/07/01 04:27:20;;;;;;;2.72;1.30;;;16.90;99.90;;;;;;5016612;28;20049;-75
2023/07/01 04:29:46;;;;;;;5.13;1.70;;;16.90;99.90;;;;;;5016556;28;20029;-75
2023/07/01 04:32:11;;;;;;;10.50;1.85;;;16.90;99.90;;;;;;5016573;28;20026;-75
2023/07/01 04:34:37;;;;;;;5.68;2.55;;;16.90;99.90;;;;;;5016298;28;20108;-75
2023/07/01 04:37:02;;;;;;;3.17;1.70;;;16.80;99.90;;;;;;5016524;28;20028;-74
2023/07/01 04:39:28;;;;;;;4.78;1.98;;;16.80;99.90;;;;;;5016930;28;20033;-75
2023/07/01 04:41:54;;;;;;;3.75;1.98;;;16.70;99.90;;;;;;5016321;28;20025;-75
2023/07/01 04:44:24;;;;;;;4.85;2.30;;;16.60;99.90;;;;;;5016324;28;20025;-75
2023/07/01 04:46:52;;;;;;;3.22;1.95;;;16.60;99.90;;;;;;5016768;28;20018;-75
2023/07/01 04:49:18;;;;;;;;;;;16.60;99.90;;;;;;5017134;28;20022;-75
2023/07/01 04:51:43;;;;;;;4.15;2.38;;;16.60;99.90;;;;;;5016569;28;19909;-75
2023/07/01 04:54:09;;;;;;;7.63;2.13;;;16.60;99.90;;;;;;5014831;28;20109;-75
2023/07/01 04:56:36;;;;;;;5.72;2.78;;;16.60;99.90;;;;;;5016555;28;20417;-75
2023/07/01 04:59:02;;;;;;;7.75;2.40;;;16.60;99.90;;;;;;5014666;28;20018;-75
2023/07/01 05:01:27;;;;;;;4.80;2.22;;;16.60;99.90;;;;;;5016034;28;20085;-75
2023/07/01 05:03:53;;;;;;;3.70;1.55;;;16.60;99.90;;;;;;5015681;28;20069;-75
2023/07/01 05:06:18;;;;;;;4.95;1.83;;;16.70;99.90;;;;;;5015827;28;20053;-75
2023/07/01 05:08:45;;;;;;;3.45;1.80;;;16.80;99.90;;;;;;5015763;28;20030;-75
2023/07/01 05:11:11;;;;;;;5.32;1.65;;;16.80;99.90;;;;;;5015765;28;20034;-75
2023/07/01 05:13:44;;;;;;;2.90;1.42;;;16.90;99.90;;;;;;5015842;28;20460;-76
2023/07/01 05:16:10;;;;;;;4.05;1.95;;;16.80;99.90;;;;;;5016344;28;20359;-74
2023/07/01 05:18:36;;;;;;;3.90;1.98;;;17.40;99.90;;;;;;5015469;28;20018;-74
2023/07/01 05:21:01;;;;;;;4.65;2.15;;;16.90;99.90;;;;;;5015560;28;20062;-74
2023/07/01 05:23:27;;;;;;;4.75;1.70;;;16.90;99.90;;;;;;5015469;28;20061;-74
2023/07/01 05:25:52;;;;;;;2.13;1.83;;;16.90;99.90;;;;;;5015509;28;20058;-74
2023/07/01 05:28:18;;;;;;;4.50;2.88;;;17.00;99.90;;;;;;5015484;28;20022;-74
2023/07/01 05:30:44;;;;;;;2.35;2.10;;;17.00;99.90;;;;;;5015385;28;20100;-74
2023/07/01 05:33:10;;;;;;;5.28;2.50;;;16.90;99.90;;;;;;5015424;28;20080;-74
2023/07/01 05:35:36;;;;;;;3.53;2.17;;;17.00;99.90;;;;;;5015344;28;20041;-74
2023/07/01 05:38:12;;;;;;;5.45;2.33;;;17.10;99.90;;;;;;5015783;28;20029;-74
2023/07/01 05:40:38;;;;;;;6.03;2.42;;;16.90;99.90;;;;;;5015197;28;20030;-74
2023/07/01 05:43:04;;;;;;;4.05;2.95;;;17.00;99.90;;;;;;5015560;28;20026;-74
2023/07/01 05:45:30;;;;;;;4.43;2.70;;;17.00;99.90;;;;;;5013858;28;20539;-74
2023/07/01 05:47:55;;;;;;;4.95;2.97;;;17.10;99.90;;;;;;5015111;28;20022;-74
2023/07/01 05:50:21;;;;;;;7.70;2.97;;;17.10;99.90;;;;;;5015070;28;20037;-74
2023/07/01 05:52:47;;;;;;;3.70;2.28;;;17.10;99.90;;;;;;5014986;28;20097;-74
2023/07/01 05:55:12;;;;;;;9.15;3.30;;;17.10;99.90;;;;;;5014986;28;20029;-74
2023/07/01 05:57:38;;;;;;;4.43;2.97;;;17.10;99.90;;;;;;5014834;28;20121;-74
2023/07/01 06:00:04;;;;;;;7.57;3.38;;;17.10;99.90;;;;;;5014817;28;20030;-74
2023/07/01 06:02:30;;;;;;;4.03;2.85;;;17.00;99.90;;;;;;5013398;28;20169;-74
2023/07/01 06:04:56;;;;;;;4.03;2.70;;;17.00;99.90;;;;;;5014872;28;20446;-74
2023/07/01 06:07:21;;;;;;;3.58;2.80;;;17.10;99.90;;;;;;5014411;28;20504;-74
2023/07/01 06:09:47;;;;;;;3.08;1.98;;;17.00;99.90;;;;;;5014593;28;20025;-75
2023/07/01 06:12:13;;;;;;;5.30;2.65;;;17.00;99.90;;;;;;5014604;28;20034;-75
2023/07/01 06:14:39;;;;;;;5.57;3.08;;;17.00;99.90;;;;;;5014373;28;20043;-75
2023/07/01 06:17:05;;;;;;;2.95;2.65;;;17.00;99.90;;;;;;5015096;28;20037;-75
2023/07/01 06:19:31;;;;;;;4.25;2.75;;;17.00;99.90;;;;;;5014546;28;20026;-75
2023/07/01 06:21:57;;;;;;;5.13;2.70;;;17.10;99.90;;;;;;5015039;28;20022;-75
2023/07/01 06:24:22;;;;;;;4.35;2.25;;;17.10;99.90;;;;;;5013158;28;20022;-75
2023/07/01 06:26:48;;;;;;;4.28;2.30;;;17.10;99.90;;;;;;5014418;28;20496;-76
2023/07/01 06:29:13;;;;;;;3.13;1.52;;;17.10;99.90;;;;;;5014238;28;20022;-75
2023/07/01 06:31:39;;;;;;;3.20;2.40;;;17.10;99.90;;;;;;5014343;28;20552;-75
2023/07/01 06:34:12;;;;;;;3.20;2.55;;;17.10;99.90;;;;;;5012916;28;20052;-75
2023/07/01 06:36:37;;;;;;;4.82;2.75;;;17.80;99.90;;;;;;5014294;28;20421;-75
2023/07/01 06:39:04;;;;;;;3.03;2.35;;;17.10;99.90;;;;;;5014383;28;20046;-75
2023/07/01 06:41:30;;;;;;;4.15;1.98;;;17.20;99.90;;;;;;5012905;28;20029;-75
2023/07/01 06:43:55;;;;;;;3.53;2.35;;;17.10;99.90;;;;;;5014052;28;20022;-75
2023/07/01 06:46:21;;;;;;;8.63;3.75;;;17.10;99.90;;;;;;5012808;28;20477;-74
2023/07/01 06:48:46;;;;;;;2.90;2.38;;;17.10;99.90;;;;;;5029518;28;20015;-75
2023/07/01 06:51:13;;;;;;;7.85;2.40;;;17.10;99.90;;;;;;5014735;28;20031;-75
2023/07/01 06:53:39;;;;;;;3.83;2.60;;;18.00;99.90;;;;;;5012697;28;20025;-75
2023/07/01 06:56:06;;;;;;;4.03;2.60;;;17.10;99.90;;;;;;5014001;28;20393;-75
2023/07/01 06:58:31;;;;;;;4.07;2.95;;;17.10;99.90;;;;;;5013945;28;20026;-75
2023/07/01 07:00:57;;;;;;;5.15;2.95;;;17.10;99.90;;;;;;5014051;28;20049;-75
2023/07/01 07:03:23;;;;;;;3.63;2.70;;;17.20;99.90;;;;;;5012604;28;20025;-75
2023/07/01 07:05:48;;;;;;;4.35;3.30;;;17.20;99.90;;;;;;5013920;28;20030;-75
2023/07/01 07:08:14;;;;;;;3.85;3.20;;;17.30;99.90;;;;;;5013961;28;20018;-75
2023/07/01 07:10:42;;;;;;;7.38;3.78;;;17.20;99.90;;;;;;5012425;28;20018;-75
2023/07/01 07:13:09;;;;;;;4.45;2.60;;;17.30;99.90;;;;;;5013385;28;20033;-75
2023/07/01 07:15:35;;;;;;;3.80;2.45;;;17.30;99.90;;;;;;5013677;28;20020;-75
2023/07/01 07:18:01;;;;;;;5.00;2.88;;;17.40;99.90;;;;;;5014219;28;20097;-75
2023/07/01 07:20:26;;;;;;;3.70;2.55;;;17.30;99.90;;;;;;5011448;28;20093;-75
2023/07/01 07:22:52;;;;;;;3.75;2.53;;;17.30;99.90;;;;;;5014186;28;20018;-75
2023/07/01 07:25:18;;;;;;;6.15;2.88;;;17.50;99.90;;;;;;5012192;28;20014;-75
2023/07/01 07:27:44;;;;;;;3.08;2.78;;;17.30;99.90;;;;;;5012269;28;20026;-75
2023/07/01 07:30:12;;;;;;;4.55;3.45;;;17.40;99.90;;;;;;5013414;28;20616;-75
2023/07/01 07:32:38;;;;;;;3.67;2.33;;;17.40;99.90;;;;;;5013353;28;20022;-75
2023/07/01 07:35:04;;;;;;;3.45;2.22;;;17.40;99.90;;;;;;5013456;28;20281;-75
2023/07/01 07:37:29;;;;;;;4.00;2.72;;;17.50;99.90;;;;;;5013349;28;20026;-75
2023/07/01 07:39:58;;;;;;;3.33;2.58;;;17.50;99.90;;;;;;5013622;28;20473;-75
2023/07/01 07:42:24;;;;;;;2.92;2.10;;;17.60;99.90;;;;;;5013509;28;20018;-75
2023/07/01 07:44:49;;;;;;;5.72;2.33;;;17.60;99.90;;;;;;5013942;28;20025;-75
2023/07/01 07:47:15;;;;;;;2.83;2.15;;;17.60;99.90;;;;;;5013181;28;20030;-75
2023/07/01 07:49:41;;;;;;;3.00;2.10;;;17.70;99.90;;;;;;5013477;28;20101;-75
2023/07/01 07:52:07;;;;;;;3.40;2.28;;;17.70;99.90;;;;;;5028434;28;20033;-75
2023/07/01 07:54:32;;;;;;;3.05;2.00;;;17.70;99.90;;;;;;5013254;28;20037;-75
2023/07/01 07:56:59;;;;;;;3.40;2.08;;;17.80;99.90;;;;;;5012162;28;20393;-75
2023/07/01 07:59:28;;;;;;;2.20;1.45;;;17.80;99.90;;;;;;5013886;28;20025;-75
2023/07/01 08:01:57;;;;;;;2.38;1.67;;;17.90;99.90;;;;;;5011951;28;20393;-75
2023/07/01 08:04:22;;;;;;;2.80;2.22;;;17.90;99.90;;;;;;5012009;28;20543;-75
2023/07/01 08:06:48;;;;;;;4.60;1.95;;;18.00;99.90;;;;;;5011703;28;20105;-77
2023/07/01 08:09:14;;;;;;;4.32;2.85;;;18.00;99.90;;;;;;5013785;28;20389;-76
2023/07/01 08:11:39;;;;;;;2.50;1.77;;;18.10;99.90;;;;;;5013554;28;20088;-75
2023/07/01 08:14:05;;;;;;;1.27;1.00;;;18.10;99.90;;;;;;5012947;28;20101;-75
2023/07/01 08:16:32;;;;;;;2.50;0.90;;;18.10;99.90;;;;;;5013109;28;20026;-75
2023/07/01 08:19:00;;;;;;;1.60;1.20;;;18.70;99.90;;;;;;5012975;28;20022;-74
2023/07/01 08:21:25;;;;;;;1.27;0.80;;;18.00;99.90;;;;;;5012973;28;20026;-75
2023/07/01 08:23:51;;;;;;;1.27;0.90;;;18.10;99.90;;;;;;5013037;28;20068;-75
2023/07/01 08:26:16;;;;;;;2.30;0.52;;;18.00;99.90;;;;;;5013010;28;20026;-75
2023/07/01 08:28:42;;;;;;;1.17;0.40;;;18.10;99.90;;;;;;5013038;28;20034;-75
2023/07/01 08:31:08;;;;;;;1.08;0.63;;;18.10;99.90;;;;;;5013160;28;20037;-76
2023/07/01 08:33:33;;;;;;;0.95;0.35;;;18.20;99.90;;;;;;5016503;28;20030;-77
2023/07/01 08:35:59;;;;;;;0.20;0.17;;;18.30;99.90;;;;;;5016898;28;20505;-77
2023/07/01 08:38:25;;;;;;;0.40;0.25;;;18.20;99.90;;;;;;5016351;28;20041;-76
2023/07/01 08:40:55;;;;;;;0.40;0.30;;;18.20;99.90;;;;;;5016970;28;20022;-76
2023/07/01 08:43:25;;;;;;;2.20;0.40;;;18.20;99.90;;;;;;5016515;28;20025;-76
2023/07/01 08:45:52;;;;;;;0.57;0.35;;;18.30;99.90;;;;;;5016310;28;20024;-77
2023/07/01 08:48:21;;;;;;;0.77;0.20;;;18.30;99.90;;;;;;5016198;28;20037;-76
2023/07/01 08:50:55;;;;;;;1.95;0.40;;;18.50;99.90;;;;;;5014955;28;20494;-76
2023/07/01 08:53:21;;;;;;;1.27;0.20;;;18.40;99.90;;;;;;5014887;28;20029;-76
2023/07/01 08:55:46;;;;;;;0.30;0.25;;;18.60;99.90;;;;;;5014854;28;20390;-76
2023/07/01 08:58:13;;;;;;;0.52;0.30;;;19.50;99.90;;;;;;5016196;28;20070;-76
2023/07/01 09:00:40;;;;;;;0.63;0.63;;;19.50;99.90;;;;;;5015969;28;20032;-77
2023/07/01 09:03:06;;;;;;;2.00;0.30;;;18.40;99.90;;;;;;5015949;28;20204;-77
2023/07/01 09:05:32;;;;;;;0.43;0.25;;;18.50;99.90;;;;;;5016516;28;20022;-77
2023/07/01 09:07:57;;;;;;;0.30;0.13;;;18.50;99.90;;;;;;5015987;28;20026;-77
2023/07/01 09:10:23;;;;;;;0.20;0.20;;;18.40;99.90;;;;;;5016016;28;20026;-76
2023/07/01 09:12:49;;;;;;;0.30;0.20;;;18.30;99.90;;;;;;5015741;28;20511;-76
2023/07/01 09:15:15;;;;;;;0.30;0.20;;;18.40;99.90;;;;;;5016275;28;20096;-76
2023/07/01 09:17:42;;;;;;;1.70;0.22;;;18.50;99.90;;;;;;5014511;28;20121;-76
2023/07/01 09:20:09;;;;;;;1.35;0.22;;;18.60;99.90;;;;;;5014347;28;20026;-77
2023/07/01 09:22:38;;;;;;;1.00;0.38;;;18.80;99.90;;;;;;5014208;28;20485;-76
2023/07/01 09:25:04;;;;;;;0.52;0.52;;;18.70;99.90;;;;;;5015663;28;20390;-76
2023/07/01 09:27:46;;;;;;;0.43;0.25;;;18.90;99.90;;;;;;5014280;28;20462;-76
2023/07/01 09:30:26;;;;;;;0.65;0.60;;;19.00;99.90;;;;;;5014279;28;20049;-77
2023/07/01 09:33:11;;;;;;;0.50;0.30;;;19.20;99.90;;;;;;5014096;28;20060;-77
2023/07/01 09:35:44;;;;;;;0.52;0.30;;;19.10;99.90;;;;;;5015684;28;20053;-77
2023/07/01 09:38:10;;;;;;;1.52;0.47;;;19.00;99.90;;;;;;5015653;28;20555;-77
2023/07/01 09:40:36;;;;;;;1.67;0.70;;;18.90;99.90;;;;;;5015563;28;20030;-76
2023/07/01 09:43:01;;;;;;;1.10;0.22;;;19.10;99.90;;;;;;5014231;28;20022;-76
2023/07/01 09:45:27;;;;;;;0.60;0.30;;;18.90;99.90;;;;;;5015077;28;20022;-76
2023/07/01 09:47:53;;;;;;;1.85;0.40;;;18.80;99.90;;;;;;5015255;28;20026;-76
2023/07/01 09:50:28;;;;;;;0.55;0.45;;;18.80;99.90;;;;;;5015841;28;20018;-75
2023/07/01 09:52:55;;;;;;;0.75;0.43;;;19.40;99.90;;;;;;5013125;28;20037;-75
2023/07/01 09:55:21;;;;;;;0.40;0.40;;;18.90;99.90;;;;;;5013797;28;20021;-75
2023/07/01 09:57:47;;;;;;;1.67;0.30;;;18.90;99.90;;;;;;5015115;28;20036;-76
2023/07/01 10:00:15;;;;;;;0.32;0.00;;;19.10;99.90;;;;;;5013909;28;20108;-76
2023/07/01 10:02:46;;;;;;;1.08;0.25;;;19.10;99.90;;;;;;5013622;28;20108;-76
2023/07/01 10:05:13;;;;;;;0.10;0.03;;;19.30;99.90;;;;;;5015634;28;20429;-76
2023/07/01 10:07:43;;;;;;;0.20;0.10;;;19.40;99.90;;;;;;5014964;28;20022;-75
2023/07/01 10:10:13;;;;;;;0.10;0.00;;;19.50;99.90;;;;;;5013720;28;20057;-75
2023/07/01 10:12:41;;;;;;;0.32;0.00;;;19.40;99.90;;;;;;5013336;28;20113;-75
2023/07/01 10:15:10;;;;;;;0.57;0.10;;;19.40;99.90;;;;;;5014875;28;20084;-75
2023/07/01 10:17:49;;;;;;;0.10;0.00;;;19.40;99.90;;;;;;5029974;28;20030;-75
2023/07/01 10:20:34;;;;;;;0.20;0.10;;;19.40;99.90;;;;;;5014745;28;20371;-75
2023/07/01 10:23:01;;;;;;;0.20;0.00;;;19.40;99.90;;;;;;5014647;28;20426;-75
2023/07/01 10:25:35;;;;;;;1.10;0.20;;;19.60;99.90;;;;;;5014594;28;20049;-75
2023/07/01 10:28:01;;;;;;;0.52;0.10;;;19.90;99.90;;;;;;5014520;28;20025;-75
2023/07/01 10:30:47;;;;;;;1.15;0.15;;;20.10;99.90;;;;;;5014470;28;20069;-75
2023/07/01 10:33:30;;;;;;;0.68;0.20;;;20.10;99.90;;;;;;5014613;28;20080;-75
2023/07/01 10:36:13;;;;;;;1.20;0.30;;;20.00;99.90;;;;;;5013133;28;20072;-75
2023/07/01 10:38:39;;;;;;;0.90;0.20;;;19.90;99.90;;;;;;5014346;28;20482;-75
2023/07/01 10:41:06;;;;;;;1.25;0.13;;;19.80;99.90;;;;;;5014534;28;20367;-75
2023/07/01 10:43:38;;;;;;;2.72;0.32;;;19.70;99.90;;;;;;5014323;28;20022;-75
2023/07/01 10:46:19;;;;;;;1.13;0.40;;;19.80;99.90;;;;;;5013014;28;20033;-75
2023/07/01 10:49:05;;;;;;;2.92;0.73;;;19.90;99.90;;;;;;5014189;28;20113;-75
2023/07/01 10:51:43;;;;;;;3.50;0.57;;;20.20;99.90;;;;;;5014163;28;20022;-75
2023/07/01 10:54:09;;;;;;;1.45;0.93;;;20.30;99.90;;;;;;5013948;28;20084;-75
2023/07/01 10:56:37;;;;;;;2.08;0.98;;;20.50;99.90;;;;;;5014142;28;20034;-75
2023/07/01 10:59:26;;;;;;;2.25;0.98;;;20.50;99.90;;;;;;5013909;28;20030;-75
2023/07/01 11:01:56;;;;;;;2.30;1.17;;;20.50;99.90;;;;;;5014020;28;20478;-75
2023/07/01 11:04:24;;;;;;;2.17;1.15;;;20.70;99.90;;;;;;5012538;28;20375;-75
2023/07/01 11:06:54;;;;;;;3.63;2.13;;;20.80;99.90;;;;;;5013955;28;20125;-75
2023/07/01 11:09:32;;;;;;;2.10;1.40;;;20.90;99.90;;;;;;5013911;28;20030;-75
2023/07/01 11:12:00;;;;;;;2.03;1.58;;;21.00;99.90;;;;;;5013799;28;20026;-75
2023/07/01 11:14:30;;;;;;;4.07;1.30;;;21.00;99.90;;;;;;5012308;28;20061;-75
2023/07/01 11:17:07;;;;;;;2.83;1.42;;;20.90;99.90;;;;;;5012550;28;20026;-76
2023/07/01 11:19:33;;;;;;;3.50;0.43;;;20.80;99.90;;;;;;5013768;28;20022;-75
2023/07/01 11:21:59;;;;;;;3.17;0.40;;;20.60;99.90;;;;;;5014385;28;20022;-75
2023/07/01 11:24:25;;;;;;;3.88;1.35;;;20.70;99.90;;;;;;5013641;28;20014;-75
2023/07/01 11:26:51;;;;;;;1.85;1.13;;;20.80;99.90;;;;;;5012332;28;20032;-76
2023/07/01 11:29:18;;;;;;;3.97;1.30;;;20.90;99.90;;;;;;5013531;28;20489;-75
2023/07/01 11:31:44;;;;;;;5.72;1.50;;;20.90;99.90;;;;;;5013586;28;20025;-75
2023/07/01 11:34:15;;;;;;;2.35;1.40;;;20.90;99.90;;;;;;5013642;28;20045;-75
2023/07/01 11:36:45;;;;;;;4.32;1.60;;;20.90;99.90;;;;;;5014145;28;20096;-75
2023/07/01 11:39:15;;;;;;;2.95;1.15;;;20.80;99.90;;;;;;5013706;28;20029;-76
2023/07/01 11:41:43;;;;;;;3.13;1.13;;;20.80;99.90;;;;;;5013618;28;20025;-76
2023/07/01 11:44:13;;;;;;;4.85;1.45;;;20.70;99.90;;;;;;5013421;28;20018;-75
2023/07/01 11:46:40;;;;;;;3.53;1.20;;;20.70;99.90;;;;;;5012860;28;20533;-75
2023/07/01 11:49:18;;;;;;;2.50;0.90;;;20.70;99.90;;;;;;5012366;28;20018;-75
2023/07/01 11:51:49;;;;;;;1.33;0.88;;;20.50;99.90;;;;;;5012222;28;20030;-75
2023/07/01 11:54:16;;;;;;;3.75;1.58;;;20.40;99.90;;;;;;5012166;28;20100;-75
2023/07/01 11:56:43;;;;;;;4.35;1.30;;;20.30;99.90;;;;;;5013237;28;20054;-75
2023/07/01 11:59:09;;;;;;;4.20;1.23;;;20.30;99.90;;;;;;5012042;28;20029;-75
2023/07/01 12:01:41;;;;;;;1.92;0.88;;;20.40;99.90;;;;;;5012324;28;20030;-75
2023/07/01 12:04:15;;;;;;;2.38;1.25;;;20.50;99.90;;;;;;5013261;28;20421;-75
2023/07/01 12:06:40;;;;;;;6.25;1.75;;;20.50;99.90;;;;;;5015352;28;20101;-75
2023/07/01 12:09:08;;;;;;;3.45;0.98;;;20.20;99.90;;;;;;5017161;28;20064;-75
2023/07/01 12:11:47;;;;;;;2.42;0.75;;;20.10;99.90;;;;;;5017716;28;20026;-75
2023/07/01 12:14:21;;;;;;;1.98;0.90;;;20.00;99.90;;;;;;5016843;28;20432;-75
2023/07/01 12:16:50;;;;;;;3.13;1.02;;;19.90;99.90;;;;;;5016945;28;20030;-75
2023/07/01 12:19:17;;;;;;;2.83;0.90;;;19.80;99.90;;;;;;5017419;28;20121;-75
2023/07/01 12:21:43;;;;;;;4.25;0.82;;;19.80;99.90;;;;;;5016867;28;20021;-75
2023/07/01 12:24:22;;;;;;;4.22;0.60;;;19.70;99.90;;;;;;5032355;28;20010;-75
2023/07/01 12:26:51;;;;;;;;;;;20.00;99.90;;;;;;5015868;28;20034;-75
2023/07/01 12:29:17;;;;;;;4.00;1.10;;;20.20;99.90;;;;;;5015505;28;20377;-75
2023/07/01 12:31:44;;;;;;;5.15;1.05;;;21.20;99.90;;;;;;5016635;28;20083;-75
2023/07/01 12:34:09;;;;;;;3.03;1.42;;;21.10;99.90;;;;;;5016580;28;20116;-75
2023/07/01 12:36:35;;;;;;;4.03;1.02;;;21.20;99.90;;;;;;5015250;28;20053;-75
2023/07/01 12:39:02;;;;;;;1.80;0.55;;;21.30;99.90;;;;;;5016660;28;20041;-75
2023/07/01 12:41:30;;;;;;;2.90;1.23;;;21.60;99.90;;;;;;5015397;28;20026;-75
2023/07/01 12:43:57;;;;;;;2.58;0.52;;;21.70;99.90;;;;;;5016542;28;20032;-75
2023/07/01 12:46:22;;;;;;;1.58;0.70;;;21.80;99.90;;;;;;5016623;28;20450;-75
2023/07/01 12:48:49;;;;;;;2.80;1.05;;;22.10;99.90;;;;;;5016313;28;20068;-75
2023/07/01 12:51:14;;;;;;;3.97;0.73;;;22.50;99.90;;;;;;5017071;28;20054;-75